Time;durP1;ratioP1;P1;durP2;ratioP2;P2;SDS_P1;SDS_P2;PMS_P1;PMS_P2;Temp;Humidity;BMP_temperature;BMP_pressure;BME280_temperature;BME280_humidity;BME280_pressure;Samples;Min_cycle;Max_cycle;Signal;HPM_P1;HPM_P2
2023/02/15 00:05:56;;;;;;;104.65;25.45;;;-0.40;99.90;;;;;;20688586;28;20029;-76
2023/02/15 00:16:04;;;;;;;119.95;25.30;;;-0.30;99.90;;;;;;20757939;28;20400;-76
2023/02/15 00:26:07;;;;;;;291.13;35.72;;;-0.40;99.90;;;;;;20733464;28;20126;-75
2023/02/15 00:36:09;;;;;;;121.72;24.65;;;-0.40;99.90;;;;;;20669119;28;20049;-76
2023/02/15 00:46:13;;;;;;;74.72;22.90;;;-0.50;99.90;;;;;;20668098;28;20038;-76
2023/02/15 00:56:13;;;;;;;160.73;29.23;;;-0.50;99.90;;;;;;20667098;28;20035;-76
2023/02/15 01:06:15;;;;;;;100.05;26.15;;;-0.50;99.90;;;;;;20665162;28;20129;-76
2023/02/15 01:16:20;;;;;;;109.93;24.27;;;-0.60;99.90;;;;;;20665093;28;20058;-76
2023/02/15 01:26:21;;;;;;;118.15;23.40;;;-0.70;99.90;;;;;;20664597;28;20026;-75
2023/02/15 01:36:22;;;;;;;150.50;25.52;;;-0.60;99.90;;;;;;20646929;28;20584;-76
2023/02/15 01:46:37;;;;;;;148.00;24.92;;;-0.70;99.90;;;;;;20662950;28;20026;-75
2023/02/15 01:56:40;;;;;;;175.98;24.52;;;-0.60;99.90;;;;;;20683212;28;20038;-76
2023/02/15 02:06:41;;;;;;;221.07;26.40;;;-0.60;99.90;;;;;;20743053;28;20036;-77
2023/02/15 02:16:56;;;;;;;223.10;23.55;;;-0.70;99.90;;;;;;20724806;28;20034;-76
2023/02/15 02:27:23;;;;;;;69.68;20.23;;;-0.70;99.90;;;;;;20719903;28;20401;-76
2023/02/15 02:37:44;;;;;;;103.03;21.38;;;-0.70;99.90;;;;;;20664635;28;20042;-75
2023/02/15 02:48:14;;;;;;;65.78;21.08;;;-0.80;99.90;;;;;;20674805;28;20162;-76
2023/02/15 02:58:33;;;;;;;184.73;24.63;;;-0.70;99.90;;;;;;20709674;28;20100;-76
2023/02/15 03:08:41;;;;;;;122.90;21.35;;;-0.80;99.90;;;;;;20757448;28;20030;-76
2023/02/15 03:18:57;;;;;;;92.70;20.17;;;-1.00;99.90;;;;;;20756634;28;20037;-76
2023/02/15 03:29:00;;;;;;;174.02;24.98;;;-1.10;99.90;;;;;;20716104;28;20034;-76
2023/02/15 03:39:19;;;;;;;129.10;22.05;;;-1.00;99.90;;;;;;20656183;28;20079;-75
2023/02/15 03:49:30;;;;;;;91.57;23.05;;;-1.10;99.90;;;;;;20672462;28;20378;-76
2023/02/15 04:30:29;;;;;;;149.60;25.67;;;-1.10;99.90;;;;;;20735569;28;20075;-74
2023/02/15 04:40:30;;;;;;;132.60;23.55;;;-1.20;99.90;;;;;;20758123;28;20065;-76
2023/02/15 04:50:30;;;;;;;69.43;20.40;;;-1.30;99.90;;;;;;20723996;28;20061;-76
2023/02/15 05:00:31;;;;;;;84.85;21.17;;;-1.30;99.90;;;;;;20686749;28;20027;-78
2023/02/15 05:10:32;;;;;;;112.05;23.45;;;-1.40;99.90;;;;;;20763896;28;20040;-78
2023/02/15 05:20:33;;;;;;;90.03;21.40;;;-1.40;99.90;;;;;;20754410;28;20030;-77
2023/02/15 05:30:34;;;;;;;89.63;23.98;;;-1.40;99.90;;;;;;20695679;28;20033;-79
2023/02/15 05:40:35;;;;;;;93.18;23.45;;;-1.40;99.90;;;;;;20681490;28;20160;-78
2023/02/15 05:50:36;;;;;;;82.40;25.60;;;-1.40;99.90;;;;;;20750430;28;20492;-78
2023/02/15 06:00:36;;;;;;;78.70;22.63;;;-1.40;99.90;;;;;;20690602;28;20030;-77
2023/02/15 06:10:37;;;;;;;84.10;23.83;;;-1.40;99.90;;;;;;20696986;28;20481;-78
2023/02/15 06:20:38;;;;;;;101.00;24.40;;;-1.50;99.90;;;;;;20701844;28;20037;-78
2023/02/15 06:30:39;;;;;;;79.50;22.15;;;-1.50;99.90;;;;;;20707620;28;20038;-76
2023/02/15 06:40:40;;;;;;;92.05;23.42;;;-1.50;99.90;;;;;;20703021;28;20026;-77
2023/02/15 06:50:41;;;;;;;70.78;21.35;;;-1.50;99.90;;;;;;20716120;28;20025;-77
2023/02/15 07:00:42;;;;;;;110.70;22.58;;;-1.50;99.90;;;;;;20725620;28;20054;-76
2023/02/15 07:10:45;;;;;;;67.43;19.67;;;-1.40;99.90;;;;;;20712305;28;20030;-76
2023/02/15 07:20:47;;;;;;;110.53;22.65;;;-1.40;99.90;;;;;;20756372;28;20040;-76
2023/02/15 07:30:47;;;;;;;107.43;25.23;;;-1.40;99.90;;;;;;20713316;28;20038;-76
2023/02/15 07:40:48;;;;;;;118.18;23.20;;;-1.40;99.90;;;;;;20671440;28;20049;-76
2023/02/15 07:50:49;;;;;;;98.90;22.33;;;-1.50;99.90;;;;;;20685503;28;20070;-77
2023/02/15 08:01:01;;;;;;;98.88;25.42;;;-1.40;99.90;;;;;;20695701;28;20117;-76
2023/02/15 08:11:25;;;;;;;109.68;28.13;;;-1.40;99.90;;;;;;20693199;28;20515;-76
2023/02/15 08:21:28;;;;;;;109.63;26.10;;;-1.20;99.90;;;;;;20693429;28;20033;-77
2023/02/15 08:31:29;;;;;;;152.90;25.80;;;-1.10;99.90;;;;;;20656462;28;1137404;-76
2023/02/15 08:41:32;;;;;;;71.60;24.17;;;-1.10;99.90;;;;;;20689344;28;20038;-76
2023/02/15 08:51:35;;;;;;;128.20;25.17;;;-1.00;99.90;;;;;;20677269;28;20041;-76
2023/02/15 09:01:36;;;;;;;76.18;24.38;;;-1.00;99.90;;;;;;20705950;28;20030;-76
2023/02/15 09:11:42;;;;;;;90.38;24.15;;;-0.70;99.90;;;;;;20697465;28;20473;-76
2023/02/15 09:21:43;;;;;;;73.70;23.70;;;-0.70;99.90;;;;;;20695075;28;20030;-76
2023/02/15 09:31:46;;;;;;;68.20;22.73;;;-0.50;99.90;;;;;;20696715;28;20511;-76
2023/02/15 09:42:02;;;;;;;70.57;22.95;;;-0.40;99.90;;;;;;20694748;28;20053;-76
2023/02/15 09:52:22;;;;;;;72.65;22.23;;;0.00;99.90;;;;;;20693840;28;20400;-76
2023/02/15 10:02:47;;;;;;;59.78;21.20;;;0.20;99.90;;;;;;20693779;28;20085;-75
2023/02/15 10:13:04;;;;;;;62.33;23.23;;;0.20;99.90;;;;;;20692912;28;20080;-75
2023/02/15 10:23:25;;;;;;;62.83;23.58;;;0.50;99.90;;;;;;20692174;28;20477;-76
2023/02/15 10:33:43;;;;;;;52.70;19.92;;;0.70;99.90;;;;;;20688240;28;20041;-75
2023/02/15 10:43:52;;;;;;;47.22;18.70;;;1.10;99.90;;;;;;20691143;28;20025;-75
2023/02/15 10:54:03;;;;;;;39.83;16.33;;;1.30;99.90;;;;;;20691901;28;20496;-75
2023/02/15 11:04:09;;;;;;;45.63;18.00;;;1.30;99.90;;;;;;20689744;28;20029;-75
2023/02/15 11:14:20;;;;;;;38.65;16.67;;;1.70;99.90;;;;;;20702867;28;20066;-75
2023/02/15 11:24:25;;;;;;;45.20;18.98;;;1.70;99.90;;;;;;20704531;28;20053;-77
2023/02/15 11:34:55;;;;;;;45.70;18.67;;;2.40;99.90;;;;;;20705956;28;20524;-77
2023/02/15 11:45:04;;;;;;;36.50;17.30;;;2.50;99.90;;;;;;20705987;28;20042;-77
2023/02/15 11:55:14;;;;;;;36.78;16.70;;;3.20;99.90;;;;;;20693850;28;20045;-76
2023/02/15 12:05:22;;;;;;;42.25;17.33;;;3.30;99.90;;;;;;20674328;28;20050;-76
2023/02/15 12:15:31;;;;;;;39.95;17.70;;;5.00;99.90;;;;;;20699733;28;20039;-76
2023/02/15 12:25:54;;;;;;;34.58;18.15;;;6.70;99.90;;;;;;20701887;28;20037;-76
2023/02/15 12:36:12;;;;;;;30.92;16.83;;;6.70;99.90;;;;;;20712104;28;20176;-75
2023/02/15 12:46:23;;;;;;;33.50;16.65;;;7.70;99.90;;;;;;20718728;28;20075;-76
2023/02/15 12:56:27;;;;;;;32.05;16.55;;;7.90;99.90;;;;;;20690584;28;20033;-76
2023/02/15 13:06:31;;;;;;;28.10;15.50;;;8.00;99.90;;;;;;20707795;28;20030;-76
2023/02/15 13:16:39;;;;;;;30.42;15.73;;;8.50;99.90;;;;;;20693578;28;20042;-75
2023/02/15 13:26:44;;;;;;;29.77;15.55;;;8.60;99.90;;;;;;20696920;28;20053;-76
2023/02/15 13:37:04;;;;;;;31.08;15.50;;;9.10;99.90;;;;;;20694854;28;20044;-75
2023/02/15 13:47:36;;;;;;;32.45;15.60;;;8.00;99.90;;;;;;20662050;28;20109;-76
2023/02/15 13:58:33;;;;;;;30.40;16.30;;;9.40;99.90;;;;;;20693491;28;20037;-76
2023/02/15 14:08:40;;;;;;;33.25;16.23;;;9.70;99.90;;;;;;20664496;28;20056;-75
2023/02/15 14:18:47;;;;;;;31.98;17.95;;;9.10;99.90;;;;;;20692372;28;20021;-75
2023/02/15 14:29:41;;;;;;;33.75;17.48;;;8.50;99.90;;;;;;20699019;28;20076;-75
2023/02/15 14:50:29;;;;;;;34.17;17.65;;;9.40;99.90;;;;;;20620614;28;20074;-75
2023/02/15 15:00:39;;;;;;;34.05;16.70;;;9.80;99.90;;;;;;20613599;28;20070;-76
2023/02/15 15:10:43;;;;;;;37.10;17.65;;;9.60;99.90;;;;;;20699754;28;20200;-75
2023/02/15 15:20:49;;;;;;;33.38;16.92;;;10.00;99.90;;;;;;20705657;28;20044;-75
2023/02/15 15:30:50;;;;;;;35.20;17.27;;;9.30;99.90;;;;;;20704324;28;20025;-77
2023/02/15 15:41:00;;;;;;;38.72;18.48;;;8.90;99.90;;;;;;20703368;28;20034;-76
2023/02/15 15:51:13;;;;;;;37.30;17.85;;;8.90;99.90;;;;;;20700966;28;20447;-77
2023/02/15 16:01:14;;;;;;;35.35;17.00;;;9.40;99.90;;;;;;20709726;28;20469;-77
2023/02/15 16:11:23;;;;;;;32.33;17.08;;;9.50;99.90;;;;;;20705641;28;20105;-76
2023/02/15 16:21:31;;;;;;;36.45;18.05;;;8.40;99.90;;;;;;20693478;28;20626;-76
2023/02/15 16:31:33;;;;;;;33.00;17.35;;;7.10;99.90;;;;;;20697547;28;20176;-77
2023/02/15 16:41:34;;;;;;;42.97;18.92;;;6.30;99.90;;;;;;20687893;28;20042;-75
2023/02/15 16:51:35;;;;;;;;;;;5.40;99.90;;;;;;20704755;28;20109;-75
2023/02/15 17:01:36;;;;;;;43.05;19.48;;;5.00;99.90;;;;;;20689602;28;19913;-75
2023/02/15 17:11:42;;;;;;;43.65;20.20;;;4.20;99.90;;;;;;20697243;28;20026;-75
2023/02/15 17:21:48;;;;;;;43.20;20.27;;;4.80;99.90;;;;;;20696128;28;20026;-75
2023/02/15 17:31:51;;;;;;;45.33;22.30;;;4.50;99.90;;;;;;20694962;28;20021;-76
2023/02/15 17:41:52;;;;;;;45.50;21.38;;;3.80;99.90;;;;;;20686775;28;20045;-77
2023/02/15 17:51:53;;;;;;;45.65;20.55;;;3.30;99.90;;;;;;20693763;28;20492;-76
2023/02/15 18:12:22;;;;;;;42.22;17.02;;;2.20;99.90;;;;;;20696076;28;20037;-77
2023/02/15 18:22:23;;;;;;;37.83;15.93;;;2.20;99.90;;;;;;20689281;28;20037;-76
2023/02/15 18:32:32;;;;;;;30.55;14.45;;;2.20;99.90;;;;;;20710199;28;20038;-77
2023/02/15 18:42:34;;;;;;;33.55;14.23;;;2.00;99.90;;;;;;20678827;28;20056;-76
2023/02/15 18:52:37;;;;;;;31.55;13.88;;;2.30;99.90;;;;;;20676543;28;20033;-76
2023/02/15 19:02:38;;;;;;;26.02;11.75;;;1.90;99.90;;;;;;20650141;28;20026;-77
2023/02/15 19:12:39;;;;;;;24.15;11.23;;;2.10;99.90;;;;;;20685438;28;20436;-77
2023/02/15 19:22:39;;;;;;;27.35;11.73;;;1.80;99.90;;;;;;20677156;28;20026;-77
2023/02/15 19:32:41;;;;;;;24.08;12.20;;;1.80;99.90;;;;;;20668835;28;20034;-77
2023/02/15 19:42:41;;;;;;;35.13;14.38;;;1.30;99.90;;;;;;20627429;28;20396;-76
2023/02/15 19:52:43;;;;;;;34.15;13.80;;;1.10;99.90;;;;;;20708112;28;20378;-74
2023/02/15 20:02:44;;;;;;;36.63;14.77;;;1.50;99.90;;;;;;20637252;28;20497;-77
2023/02/15 20:12:46;;;;;;;42.55;17.42;;;1.70;99.90;;;;;;20677795;28;20030;-78
2023/02/15 20:22:49;;;;;;;34.05;14.85;;;1.90;99.90;;;;;;20694420;28;20033;-78
2023/02/15 20:32:50;;;;;;;38.17;16.10;;;1.80;99.90;;;;;;20665420;28;20054;-77
2023/02/15 20:42:51;;;;;;;39.78;16.83;;;1.70;99.90;;;;;;20640105;28;20037;-75
2023/02/15 20:52:54;;;;;;;36.10;15.95;;;1.90;99.90;;;;;;20641857;28;20026;-73
2023/02/15 21:02:57;;;;;;;57.40;20.92;;;1.80;99.90;;;;;;20654802;28;20113;-76
2023/02/15 21:13:03;;;;;;;49.72;22.45;;;1.90;99.90;;;;;;20656631;28;20516;-76
2023/02/15 21:23:04;;;;;;;43.30;19.88;;;1.90;99.90;;;;;;20651789;28;20050;-77
2023/02/15 21:33:05;;;;;;;39.72;16.58;;;2.00;99.90;;;;;;20645845;28;20494;-77
2023/02/15 21:53:47;;;;;;;49.95;20.20;;;1.80;99.90;;;;;;20639473;28;20036;-76
2023/02/15 22:03:48;;;;;;;54.55;23.77;;;1.80;99.90;;;;;;20633486;28;20069;-75
2023/02/15 22:13:49;;;;;;;67.38;26.63;;;1.90;99.90;;;;;;20636205;28;20029;-77
2023/02/15 22:23:50;;;;;;;65.07;25.35;;;2.00;99.90;;;;;;20639356;28;20481;-77
2023/02/15 22:33:53;;;;;;;57.65;24.83;;;2.00;99.90;;;;;;20639062;28;20512;-76
2023/02/15 22:43:54;;;;;;;56.13;24.33;;;1.90;99.90;;;;;;20634728;28;20109;-76
2023/02/15 22:53:55;;;;;;;58.00;24.58;;;1.80;99.90;;;;;;20637106;28;20027;-75
2023/02/15 23:03:56;;;;;;;58.25;24.52;;;1.80;99.90;;;;;;20641327;28;20517;-76
2023/02/15 23:13:57;;;;;;;67.68;26.05;;;1.70;99.90;;;;;;20675733;28;20080;-76
2023/02/15 23:24:16;;;;;;;58.00;24.52;;;1.60;99.90;;;;;;20700990;28;20560;-77
2023/02/15 23:34:25;;;;;;;53.53;24.77;;;1.70;99.90;;;;;;20706475;28;20037;-77
2023/02/15 23:44:26;;;;;;;42.55;17.60;;;1.50;99.90;;;;;;20723560;28;20030;-77
2023/02/15 23:54:27;;;;;;;34.47;15.10;;;1.00;99.90;;;;;;20700299;28;20674;-76
